Time;durP1;ratioP1;P1;durP2;ratioP2;P2;SDS_P1;SDS_P2;PMS_P1;PMS_P2;Temp;Humidity;BMP_temperature;BMP_pressure;BME280_temperature;BME280_humidity;BME280_pressure;Samples;Min_cycle;Max_cycle;Signal;HPM_P1;HPM_P2
2022/10/13 00:00:38;;;;;;;35.22;19.05;;;;;;;;;;5094620;28;20154;-73
2022/10/13 00:03:04;;;;;;;31.52;17.70;;;;;;;;;;5093557;28;20138;-73
2022/10/13 00:05:30;;;;;;;36.63;18.35;;;;;;;;;;5095114;28;20040;-72
2022/10/13 00:07:56;;;;;;;;;;;;;;;;;;5092577;28;20536;-72
2022/10/13 00:10:22;;;;;;;36.45;18.63;;;;;;;;;;5092909;28;19923;-72
2022/10/13 00:12:49;;;;;;;33.03;18.15;;;;;;;;;;5094101;28;20040;-72
2022/10/13 00:15:14;;;;;;;;;;;;;;;;;;5094657;28;20480;-72
2022/10/13 00:17:41;;;;;;;37.15;19.17;;;;;;;;;;5092313;28;19931;-71
2022/10/13 00:20:07;;;;;;;35.45;19.27;;;;;;;;;;5089501;28;20489;-72
2022/10/13 00:22:33;;;;;;;;;;;;;;;;;;5096029;28;20051;-71
2022/10/13 00:24:59;;;;;;;33.80;17.95;;;;;;;;;;5093951;28;19942;-71
2022/10/13 00:27:25;;;;;;;32.30;18.30;;;;;;;;;;5092248;28;20059;-71
2022/10/13 00:29:51;;;;;;;31.63;18.42;;;;;;;;;;5093131;28;20118;-71
2022/10/13 00:32:19;;;;;;;39.00;19.02;;;;;;;;;;5090705;28;20066;-71
2022/10/13 00:34:45;;;;;;;37.20;19.15;;;;;;;;;;5093191;28;20055;-71
2022/10/13 00:37:11;;;;;;;39.03;19.63;;;;;;;;;;5095243;28;20066;-71
2022/10/13 00:39:37;;;;;;;38.67;19.23;;;;;;;;;;5067937;28;20103;-71
2022/10/13 00:42:04;;;;;;;32.97;18.42;;;;;;;;;;5090782;28;20503;-72
2022/10/13 00:44:49;;;;;;;33.35;19.95;;;;;;;;;;5095285;28;20109;-71
2022/10/13 00:47:15;;;;;;;33.13;18.92;;;;;;;;;;5095194;28;20040;-71
2022/10/13 00:49:41;;;;;;;35.53;20.10;;;;;;;;;;5090690;28;20118;-71
2022/10/13 00:52:07;;;;;;;36.97;20.67;;;;;;;;;;5084980;28;20044;-70
2022/10/13 00:54:33;;;;;;;34.38;19.27;;;;;;;;;;5084029;28;20122;-71
2022/10/13 00:57:00;;;;;;;35.38;18.95;;;;;;;;;;5089083;28;20126;-70
2022/10/13 00:59:28;;;;;;;39.88;19.83;;;;;;;;;;5091212;28;20127;-71
2022/10/13 01:01:54;;;;;;;34.65;20.55;;;;;;;;;;5090855;28;20047;-72
2022/10/13 01:04:22;;;;;;;39.28;19.23;;;;;;;;;;5075298;28;20152;-71
2022/10/13 01:06:49;;;;;;;32.25;19.88;;;;;;;;;;5090070;28;20032;-73
2022/10/13 01:09:15;;;;;;;36.05;20.35;;;;;;;;;;5092171;28;20052;-72
2022/10/13 01:12:01;;;;;;;35.53;20.02;;;;;;;;;;5053900;28;20052;-72
2022/10/13 01:14:30;;;;;;;35.78;19.10;;;;;;;;;;5090376;28;20097;-72
2022/10/13 01:16:56;;;;;;;38.25;20.98;;;;;;;;;;5084433;28;20060;-70
2022/10/13 01:19:40;;;;;;;32.47;19.52;;;;;;;;;;5088531;28;20127;-71
2022/10/13 01:22:06;;;;;;;35.63;20.73;;;;;;;;;;5086388;28;20051;-71
2022/10/13 01:24:32;;;;;;;41.33;20.20;;;;;;;;;;5093830;28;20048;-71
2022/10/13 01:27:10;;;;;;;40.13;20.77;;;;;;;;;;5085685;28;20059;-71
2022/10/13 01:29:35;;;;;;;;;;;;;;;;;;5086411;28;20152;-71
2022/10/13 01:32:07;;;;;;;35.42;20.25;;;;;;;;;;5088240;28;19924;-71
2022/10/13 01:34:42;;;;;;;35.40;20.00;;;;;;;;;;5091091;28;20040;-71
2022/10/13 01:37:08;;;;;;;34.80;20.73;;;;;;;;;;5090206;28;20051;-71
2022/10/13 01:39:37;;;;;;;37.75;20.55;;;;;;;;;;5085317;28;20040;-71
2022/10/13 01:42:10;;;;;;;42.38;21.15;;;;;;;;;;5083083;28;20075;-72
2022/10/13 01:44:38;;;;;;;35.15;19.52;;;;;;;;;;5091946;28;20534;-71
2022/10/13 01:47:05;;;;;;;36.58;19.30;;;;;;;;;;5092782;28;20484;-71
2022/10/13 01:49:33;;;;;;;33.80;20.00;;;;;;;;;;5092018;28;20044;-71
2022/10/13 01:52:02;;;;;;;34.95;20.55;;;;;;;;;;5064287;28;20412;-71
2022/10/13 01:54:28;;;;;;;36.47;19.70;;;;;;;;;;5087410;28;20044;-71
2022/10/13 01:56:55;;;;;;;40.58;20.17;;;;;;;;;;5091906;28;20043;-72
2022/10/13 01:59:22;;;;;;;34.08;19.60;;;;;;;;;;5092183;28;20515;-72
2022/10/13 02:01:54;;;;;;;41.20;20.63;;;;;;;;;;5086765;28;20284;-71
2022/10/13 02:04:32;;;;;;;35.83;19.73;;;;;;;;;;5088016;28;20479;-71
2022/10/13 02:06:58;;;;;;;32.38;19.60;;;;;;;;;;5082601;28;20127;-71
2022/10/13 02:09:34;;;;;;;36.42;20.15;;;;;;;;;;5069217;28;20110;-72
2022/10/13 02:12:05;;;;;;;33.17;20.00;;;;;;;;;;5087989;28;20426;-71
2022/10/13 02:14:33;;;;;;;37.75;19.80;;;;;;;;;;5081571;28;20046;-71
2022/10/13 02:17:00;;;;;;;34.28;19.73;;;;;;;;;;5063039;28;20079;-71
2022/10/13 02:19:27;;;;;;;34.83;20.15;;;;;;;;;;5082797;28;20049;-71
2022/10/13 02:21:53;;;;;;;37.10;20.17;;;;;;;;;;5083094;28;20085;-71
2022/10/13 02:24:19;;;;;;;33.55;19.55;;;;;;;;;;5081870;28;20043;-72
2022/10/13 02:26:45;;;;;;;38.78;20.50;;;;;;;;;;5088985;28;20040;-71
2022/10/13 02:29:13;;;;;;;36.88;20.10;;;;;;;;;;5082512;28;20534;-72
2022/10/13 02:31:40;;;;;;;35.10;19.65;;;;;;;;;;5084012;28;20536;-72
2022/10/13 02:34:06;;;;;;;38.60;20.40;;;;;;;;;;5085276;28;20040;-74
2022/10/13 02:36:32;;;;;;;37.60;20.52;;;;;;;;;;5091834;28;20078;-74
2022/10/13 02:38:58;;;;;;;32.78;21.15;;;;;;;;;;5075724;28;20044;-74
2022/10/13 02:41:24;;;;;;;38.10;22.02;;;;;;;;;;5090882;28;20044;-73
2022/10/13 02:43:50;;;;;;;35.42;21.45;;;;;;;;;;5092275;28;20044;-73
2022/10/13 02:46:16;;;;;;;36.08;20.95;;;;;;;;;;5093448;28;20055;-75
2022/10/13 02:48:42;;;;;;;36.50;21.38;;;;;;;;;;5090805;28;20044;-74
2022/10/13 02:51:08;;;;;;;36.40;21.38;;;;;;;;;;5091817;28;20044;-74
2022/10/13 02:53:34;;;;;;;38.53;21.60;;;;;;;;;;5092139;28;20082;-73
2022/10/13 02:56:00;;;;;;;39.72;22.10;;;;;;;;;;5093160;28;20122;-74
2022/10/13 02:58:26;;;;;;;36.80;22.25;;;;;;;;;;5092866;28;20044;-74
2022/10/13 03:00:52;;;;;;;38.42;22.50;;;;;;;;;;5091886;28;20086;-74
2022/10/13 03:03:19;;;;;;;40.55;22.85;;;;;;;;;;5090241;28;20051;-73
2022/10/13 03:05:45;;;;;;;39.17;22.73;;;;;;;;;;5090221;28;20040;-72
2022/10/13 03:08:11;;;;;;;39.28;24.52;;;;;;;;;;5091668;28;20457;-72
2022/10/13 03:10:37;;;;;;;37.92;22.02;;;;;;;;;;5091764;28;20044;-72
2022/10/13 03:13:03;;;;;;;38.22;23.08;;;;;;;;;;5092964;28;20101;-73
2022/10/13 03:15:29;;;;;;;38.03;23.05;;;;;;;;;;5064502;28;20049;-73
2022/10/13 03:17:55;;;;;;;43.05;23.08;;;;;;;;;;5072691;28;20068;-72
2022/10/13 03:20:21;;;;;;;39.85;23.17;;;;;;;;;;5081558;28;20097;-72
2022/10/13 03:22:47;;;;;;;40.80;24.13;;;;;;;;;;5074378;28;20040;-73
2022/10/13 03:25:13;;;;;;;38.35;23.42;;;;;;;;;;5091754;28;20042;-72
2022/10/13 03:27:39;;;;;;;42.83;23.77;;;;;;;;;;5091295;28;20048;-72
2022/10/13 03:30:06;;;;;;;38.13;22.52;;;;;;;;;;5092719;28;20052;-72
2022/10/13 03:32:32;;;;;;;;;;;;;;;;;;5094450;28;20048;-72
2022/10/13 03:34:58;;;;;;;45.85;24.52;;;;;;;;;;5096915;28;19955;-73
2022/10/13 03:37:24;;;;;;;43.75;24.88;;;;;;;;;;5089285;28;20048;-75
2022/10/13 03:39:50;;;;;;;39.97;24.15;;;;;;;;;;5077429;28;20055;-72
2022/10/13 03:42:16;;;;;;;41.85;24.30;;;;;;;;;;5094731;28;20122;-72
2022/10/13 03:44:42;;;;;;;39.47;24.05;;;;;;;;;;5093799;28;20547;-73
2022/10/13 03:47:08;;;;;;;41.53;25.73;;;;;;;;;;5092606;28;20373;-74
2022/10/13 03:49:34;;;;;;;46.75;26.30;;;;;;;;;;5095258;28;20119;-75
2022/10/13 03:52:00;;;;;;;46.78;26.45;;;;;;;;;;5094353;28;20100;-79
2022/10/13 03:54:26;;;;;;;43.47;26.48;;;;;;;;;;5095731;28;20048;-77
2022/10/13 03:56:52;;;;;;;42.17;25.63;;;;;;;;;;5092819;28;20072;-78
2022/10/13 03:59:18;;;;;;;45.17;27.92;;;;;;;;;;5095666;28;20094;-76
2022/10/13 04:01:45;;;;;;;40.80;26.88;;;;;;;;;;5095984;28;20190;-76
2022/10/13 04:04:11;;;;;;;45.75;27.95;;;;;;;;;;5092662;28;20055;-76
2022/10/13 04:06:38;;;;;;;45.72;28.58;;;;;;;;;;5095957;28;20087;-77
2022/10/13 04:09:04;;;;;;;;;;;;;;;;;;5095761;28;20048;-77
2022/10/13 04:11:30;;;;;;;46.03;29.15;;;;;;;;;;5095280;28;19927;-78
2022/10/13 04:13:57;;;;;;;47.30;28.98;;;;;;;;;;5094499;28;20480;-78
2022/10/13 04:16:25;;;;;;;46.40;30.23;;;;;;;;;;5092254;28;20162;-78
2022/10/13 04:18:53;;;;;;;51.78;31.20;;;;;;;;;;5093406;28;20052;-77
2022/10/13 04:21:19;;;;;;;48.10;30.52;;;;;;;;;;5093083;28;20055;-76
2022/10/13 04:23:45;;;;;;;48.40;31.90;;;;;;;;;;5094405;28;20446;-79
2022/10/13 04:26:16;;;;;;;48.40;28.77;;;;;;;;;;5094097;28;20387;-78
2022/10/13 04:28:42;;;;;;;48.63;31.27;;;;;;;;;;5094129;28;20093;-78
2022/10/13 04:31:09;;;;;;;50.70;31.40;;;;;;;;;;5085682;28;20482;-76
2022/10/13 04:33:35;;;;;;;55.33;33.58;;;;;;;;;;5082306;28;20399;-78
2022/10/13 04:36:04;;;;;;;55.67;31.13;;;;;;;;;;5088905;28;20040;-78
2022/10/13 04:38:30;;;;;;;48.47;30.95;;;;;;;;;;5094607;28;20141;-78
2022/10/13 04:40:56;;;;;;;58.20;33.35;;;;;;;;;;5077632;28;20580;-76
2022/10/13 04:43:22;;;;;;;50.97;30.35;;;;;;;;;;5078635;28;20080;-74
2022/10/13 04:45:48;;;;;;;63.90;36.00;;;;;;;;;;5076845;28;20396;-74
2022/10/13 04:48:15;;;;;;;54.58;32.85;;;;;;;;;;5097028;28;20090;-76
2022/10/13 04:50:41;;;;;;;53.28;33.33;;;;;;;;;;5105355;28;20649;-76
2022/10/13 04:53:07;;;;;;;55.30;34.35;;;;;;;;;;5101162;28;20484;-75
2022/10/13 04:55:35;;;;;;;56.00;34.60;;;;;;;;;;5094297;28;20452;-75
2022/10/13 04:58:01;;;;;;;65.43;38.58;;;;;;;;;;5092655;28;20256;-76
2022/10/13 05:00:27;;;;;;;57.42;34.08;;;;;;;;;;5093401;28;20051;-74
2022/10/13 05:02:53;;;;;;;60.00;35.92;;;;;;;;;;5093954;28;20131;-74
2022/10/13 05:05:19;;;;;;;57.08;32.88;;;;;;;;;;5094433;28;20048;-75
2022/10/13 05:07:45;;;;;;;51.33;31.40;;;;;;;;;;5090743;28;20036;-74
2022/10/13 05:10:11;;;;;;;60.45;36.13;;;;;;;;;;5094352;28;20048;-75
2022/10/13 05:12:37;;;;;;;56.75;37.08;;;;;;;;;;5094406;28;20093;-73
2022/10/13 05:15:03;;;;;;;55.05;35.88;;;;;;;;;;5094019;28;20262;-79
2022/10/13 05:17:33;;;;;;;62.85;38.38;;;;;;;;;;5093238;28;20056;-78
2022/10/13 05:19:59;;;;;;;58.25;35.85;;;;;;;;;;5089549;28;20462;-80
2022/10/13 05:22:26;;;;;;;63.58;37.10;;;;;;;;;;5095124;28;20393;-80
2022/10/13 05:24:52;;;;;;;66.45;39.75;;;;;;;;;;5095352;28;20048;-78
2022/10/13 05:27:19;;;;;;;57.90;37.55;;;;;;;;;;5108178;28;20492;-81
2022/10/13 05:29:45;;;;;;;61.13;37.50;;;;;;;;;;5073526;28;20049;-81
2022/10/13 05:32:11;;;;;;;67.15;38.78;;;;;;;;;;5083875;28;20048;-80
2022/10/13 05:34:37;;;;;;;66.93;39.05;;;;;;;;;;5094028;28;20125;-82
2022/10/13 05:37:03;;;;;;;70.63;41.33;;;;;;;;;;5094617;28;20433;-88
2022/10/13 05:39:29;;;;;;;;;;;;;;;;;;5088609;28;20090;-76
2022/10/13 05:41:55;;;;;;;65.35;41.95;;;;;;;;;;5090833;28;19966;-91
2022/10/13 05:44:23;;;;;;;83.45;47.17;;;;;;;;;;5094389;28;20047;-90
2022/10/13 05:46:49;;;;;;;72.57;42.35;;;;;;;;;;5094573;28;20044;-82
2022/10/13 05:49:15;;;;;;;68.45;40.53;;;;;;;;;;5090259;28;20104;-86
2022/10/13 05:51:43;;;;;;;76.15;45.28;;;;;;;;;;5076399;28;20075;-87
2022/10/13 05:54:24;;;;;;;75.05;43.95;;;;;;;;;;5093622;28;20605;-77
2022/10/13 05:56:53;;;;;;;79.03;46.15;;;;;;;;;;5090547;28;20044;-74
2022/10/13 05:59:19;;;;;;;92.95;48.95;;;;;;;;;;5091025;28;20093;-72
2022/10/13 06:01:46;;;;;;;112.88;52.95;;;;;;;;;;5088033;28;20068;-78
2022/10/13 06:04:21;;;;;;;86.85;48.72;;;;;;;;;;5071405;28;20048;-74
2022/10/13 06:06:48;;;;;;;88.65;49.25;;;;;;;;;;5089200;28;20040;-75
2022/10/13 06:09:13;;;;;;;;;;;;;;;;;;5089542;28;20112;-74
2022/10/13 06:11:39;;;;;;;80.72;48.22;;;;;;;;;;5089354;28;20348;-73
2022/10/13 06:14:06;;;;;;;98.13;50.63;;;;;;;;;;5092081;28;20043;-72
2022/10/13 06:16:35;;;;;;;99.43;51.83;;;;;;;;;;5054041;28;20131;-72
2022/10/13 06:19:01;;;;;;;93.68;52.30;;;;;;;;;;5062489;28;20086;-72
2022/10/13 06:21:27;;;;;;;84.80;47.53;;;;;;;;;;5051462;28;20051;-72
2022/10/13 06:23:53;;;;;;;88.28;50.20;;;;;;;;;;5070719;28;20037;-69
2022/10/13 06:26:19;;;;;;;96.20;52.97;;;;;;;;;;5069423;28;20040;-70
2022/10/13 06:28:45;;;;;;;101.20;53.92;;;;;;;;;;5067993;28;20048;-72
2022/10/13 06:31:13;;;;;;;84.20;49.60;;;;;;;;;;5071321;28;20496;-71
2022/10/13 06:33:39;;;;;;;92.13;51.40;;;;;;;;;;5068764;28;20052;-71
2022/10/13 06:36:05;;;;;;;91.00;52.47;;;;;;;;;;5067339;28;20041;-73
2022/10/13 06:38:31;;;;;;;;;;;;;;;;;;5068552;28;20049;-73
2022/10/13 06:41:01;;;;;;;93.68;53.80;;;;;;;;;;5066859;28;20437;-68
2022/10/13 06:43:27;;;;;;;108.10;56.10;;;;;;;;;;5071402;28;20076;-71
2022/10/13 06:45:53;;;;;;;103.43;52.90;;;;;;;;;;5071372;28;20082;-72
2022/10/13 06:48:19;;;;;;;102.22;54.40;;;;;;;;;;5066985;28;20547;-68
2022/10/13 06:50:45;;;;;;;105.35;56.03;;;;;;;;;;5060999;28;20052;-70
2022/10/13 06:53:11;;;;;;;91.07;49.47;;;;;;;;;;5064394;28;20451;-71
2022/10/13 06:55:38;;;;;;;97.88;53.33;;;;;;;;;;5068574;28;20139;-72
2022/10/13 06:58:04;;;;;;;96.65;54.63;;;;;;;;;;5070274;28;20048;-72
2022/10/13 07:00:30;;;;;;;95.03;52.83;;;;;;;;;;5071261;28;20044;-71
2022/10/13 07:02:56;;;;;;;100.93;54.58;;;;;;;;;;5072413;28;20051;-72
2022/10/13 07:05:22;;;;;;;101.47;51.83;;;;;;;;;;5067698;28;20097;-75
2022/10/13 07:07:52;;;;;;;103.63;53.88;;;;;;;;;;5071468;28;20182;-73
2022/10/13 07:10:18;;;;;;;107.00;56.42;;;;;;;;;;5070594;28;20055;-73
2022/10/13 07:12:44;;;;;;;93.10;52.83;;;;;;;;;;5051695;28;20044;-68
2022/10/13 07:15:10;;;;;;;97.80;53.47;;;;;;;;;;5065234;28;20502;-72
2022/10/13 07:17:38;;;;;;;96.68;52.72;;;;;;;;;;5086368;28;20058;-74
2022/10/13 07:20:04;;;;;;;103.18;55.35;;;;;;;;;;5086117;28;20518;-74
2022/10/13 07:22:30;;;;;;;;;;;;;;;;;;5088292;28;20496;-73
2022/10/13 07:24:56;;;;;;;101.90;53.08;;;;;;;;;;5090400;28;19920;-75
2022/10/13 07:27:22;;;;;;;97.90;54.05;;;;;;;;;;5086380;28;20028;-74
2022/10/13 07:29:49;;;;;;;104.55;56.13;;;;;;;;;;5079961;28;20400;-72
2022/10/13 07:32:15;;;;;;;100.15;54.60;;;;;;;;;;5086330;28;20400;-71
2022/10/13 07:34:41;;;;;;;97.93;55.03;;;;;;;;;;5088623;28;20072;-71
2022/10/13 07:37:08;;;;;;;98.45;55.05;;;;;;;;;;5087681;28;20040;-71
2022/10/13 07:39:34;;;;;;;;;;;;;;;;;;5088851;28;20089;-72
2022/10/13 07:42:00;;;;;;;92.13;52.55;;;;;;;;;;5090409;28;19924;-72
2022/10/13 07:44:26;;;;;;;99.38;55.25;;;;;;;;;;5083740;28;20050;-72
2022/10/13 07:46:52;;;;;;;86.30;52.03;;;;;;;;;;5084891;28;20484;-73
2022/10/13 07:49:19;;;;;;;97.65;53.78;;;;;;;;;;5090497;28;20044;-70
2022/10/13 07:51:45;;;;;;;92.78;51.63;;;;;;;;;;5090878;28;20048;-71
2022/10/13 07:54:11;;;;;;;96.35;52.83;;;;;;;;;;5089618;28;20051;-74
2022/10/13 07:56:37;;;;;;;99.93;55.25;;;;;;;;;;5088621;28;20119;-73
2022/10/13 07:59:04;;;;;;;96.55;52.95;;;;;;;;;;5091113;28;20044;-73
2022/10/13 08:01:30;;;;;;;94.10;53.50;;;;;;;;;;5089724;28;20040;-73
2022/10/13 08:03:57;;;;;;;95.88;53.17;;;;;;;;;;5089199;28;20052;-73
2022/10/13 08:06:23;;;;;;;102.90;54.70;;;;;;;;;;5088464;28;20036;-72
2022/10/13 08:08:49;;;;;;;101.82;53.90;;;;;;;;;;5092211;28;20051;-73
2022/10/13 08:11:16;;;;;;;96.07;55.33;;;;;;;;;;5090680;28;20090;-74
2022/10/13 08:13:42;;;;;;;93.60;52.67;;;;;;;;;;5091001;28;20475;-74
2022/10/13 08:16:08;;;;;;;94.00;51.95;;;;;;;;;;5091639;28;20454;-71
2022/10/13 08:18:34;;;;;;;89.00;51.03;;;;;;;;;;5089885;28;20079;-72
2022/10/13 08:21:01;;;;;;;88.10;49.90;;;;;;;;;;5090761;28;20073;-77
2022/10/13 08:23:27;;;;;;;101.30;52.15;;;;;;;;;;5077197;28;20471;-76
2022/10/13 08:25:53;;;;;;;;;;;;;;;;;;5093506;28;20044;-80
2022/10/13 08:28:19;;;;;;;85.20;50.47;;;;;;;;;;5091200;28;19927;-79
2022/10/13 08:30:45;;;;;;;96.45;53.13;;;;;;;;;;5089988;28;20043;-75
2022/10/13 08:33:12;;;;;;;101.55;55.10;;;;;;;;;;5095074;28;20059;-72
2022/10/13 08:35:38;;;;;;;93.88;53.40;;;;;;;;;;5077211;28;20073;-79
2022/10/13 08:38:04;;;;;;;94.75;52.45;;;;;;;;;;5095376;28;20044;-79
2022/10/13 08:40:30;;;;;;;96.13;53.30;;;;;;;;;;5093458;28;20475;-80
2022/10/13 08:42:56;;;;;;;100.72;53.35;;;;;;;;;;5096912;28;20043;-80
2022/10/13 08:45:22;;;;;;;;;;;;;;;;;;5079317;28;20055;-82
2022/10/13 08:47:51;;;;;;;92.38;50.78;;;;;;;;;;5078034;28;20010;-79
2022/10/13 08:50:20;;;;;;;98.25;55.20;;;;;;;;;;5092659;28;20051;-79
2022/10/13 08:53:12;;;;;;;96.28;52.78;;;;;;;;;;5095148;28;20048;-77
2022/10/13 08:55:43;;;;;;;90.25;52.38;;;;;;;;;;5090869;28;20055;-79
2022/10/13 08:58:12;;;;;;;105.90;56.42;;;;;;;;;;5095278;28;20048;-79
2022/10/13 09:00:38;;;;;;;104.93;56.15;;;;;;;;;;5092011;28;20555;-79
2022/10/13 09:03:19;;;;;;;114.22;57.58;;;;;;;;;;5078448;28;20052;-79
2022/10/13 09:05:48;;;;;;;116.00;59.33;;;;;;;;;;5102099;28;20059;-81
2022/10/13 09:08:19;;;;;;;110.20;57.47;;;;;;;;;;5094844;28;20048;-81
2022/10/13 09:10:52;;;;;;;108.85;58.97;;;;;;;;;;5093084;28;20154;-82
2022/10/13 09:13:18;;;;;;;115.85;60.80;;;;;;;;;;5094012;28;20044;-77
2022/10/13 09:15:46;;;;;;;118.50;60.10;;;;;;;;;;5094668;28;20131;-83
2022/10/13 09:18:13;;;;;;;110.38;60.40;;;;;;;;;;5092610;28;20082;-82
2022/10/13 09:20:39;;;;;;;120.25;62.25;;;;;;;;;;5092570;28;20052;-82
2022/10/13 09:23:12;;;;;;;120.55;61.28;;;;;;;;;;5094687;28;20044;-83
2022/10/13 09:25:39;;;;;;;113.07;61.13;;;;;;;;;;5094267;28;20054;-83
2022/10/13 09:28:10;;;;;;;119.28;59.97;;;;;;;;;;5094749;28;20043;-83
2022/10/13 09:30:37;;;;;;;116.38;61.63;;;;;;;;;;5090738;28;20048;-79
2022/10/13 09:33:12;;;;;;;108.53;59.63;;;;;;;;;;5094414;28;20106;-81
2022/10/13 09:35:43;;;;;;;119.60;61.80;;;;;;;;;;5094993;28;20155;-79
2022/10/13 09:38:19;;;;;;;79.20;48.35;;;;;;;;;;5091484;28;20044;-78
2022/10/13 09:41:02;;;;;;;113.05;60.55;;;;;;;;;;5087695;28;20032;-75
2022/10/13 09:43:30;;;;;;;118.25;63.08;;;;;;;;;;5091361;28;20051;-75
2022/10/13 09:45:57;;;;;;;116.93;62.22;;;;;;;;;;5088442;28;20048;-78
2022/10/13 09:48:31;;;;;;;130.15;65.93;;;;;;;;;;5074700;28;20076;-72
2022/10/13 09:50:58;;;;;;;133.25;66.82;;;;;;;;;;5090025;28;20101;-77
2022/10/13 09:53:24;;;;;;;135.48;66.45;;;;;;;;;;5089939;28;20047;-74
2022/10/13 09:56:06;;;;;;;142.80;69.55;;;;;;;;;;5090068;28;20077;-72
2022/10/13 09:58:34;;;;;;;127.57;68.10;;;;;;;;;;5088571;28;20075;-74
2022/10/13 10:01:00;;;;;;;150.63;71.20;;;;;;;;;;5090861;28;20040;-74
2022/10/13 10:03:29;;;;;;;125.43;66.10;;;;;;;;;;5089948;28;20132;-74
2022/10/13 10:05:56;;;;;;;124.85;65.10;;;;;;;;;;5089226;28;20036;-77
2022/10/13 10:08:45;;;;;;;121.70;64.65;;;;;;;;;;5089065;28;20044;-76
2022/10/13 10:11:16;;;;;;;134.75;68.68;;;;;;;;;;5074241;28;20063;-71
2022/10/13 10:13:42;;;;;;;131.45;66.70;;;;;;;;;;5090248;28;20076;-75
2022/10/13 10:16:17;;;;;;;148.15;69.22;;;;;;;;;;5091281;28;20056;-76
2022/10/13 10:18:46;;;;;;;117.28;61.30;;;;;;;;;;5090244;28;20055;-76
2022/10/13 10:21:33;;;;;;;125.45;64.63;;;;;;;;;;5071833;28;21284;-74
2022/10/13 10:23:59;;;;;;;123.72;63.10;;;;;;;;;;5088347;28;20044;-75
2022/10/13 10:26:43;;;;;;;117.93;60.22;;;;;;;;;;5091197;28;20051;-77
2022/10/13 10:29:23;;;;;;;141.02;66.10;;;;;;;;;;5092490;28;20538;-74
2022/10/13 10:32:11;;;;;;;124.15;60.75;;;;;;;;;;5085818;28;20127;-73
2022/10/13 10:34:44;;;;;;;128.80;61.08;;;;;;;;;;5074864;28;20468;-73
2022/10/13 10:37:19;;;;;;;123.65;61.38;;;;;;;;;;5093386;28;20087;-73
2022/10/13 10:39:58;;;;;;;126.85;61.50;;;;;;;;;;5092694;28;20454;-72
2022/10/13 10:42:31;;;;;;;130.00;63.08;;;;;;;;;;5067446;28;20044;-74
2022/10/13 10:44:58;;;;;;;121.25;60.97;;;;;;;;;;5072929;28;20052;-72
2022/10/13 10:47:26;;;;;;;132.55;63.55;;;;;;;;;;5054982;28;20053;-73
2022/10/13 10:49:54;;;;;;;137.85;62.95;;;;;;;;;;5072077;28;20053;-74
2022/10/13 10:52:24;;;;;;;140.02;64.63;;;;;;;;;;5085056;28;20480;-72
2022/10/13 10:54:50;;;;;;;130.52;63.90;;;;;;;;;;5092255;28;20511;-71
2022/10/13 10:57:16;;;;;;;133.13;62.63;;;;;;;;;;5092827;28;20131;-73
2022/10/13 11:00:01;;;;;;;155.13;66.18;;;;;;;;;;5074214;28;20083;-71
2022/10/13 11:02:45;;;;;;;141.77;64.80;;;;;;;;;;5090767;28;20052;-71
2022/10/13 11:05:12;;;;;;;136.02;62.80;;;;;;;;;;5087290;28;20095;-73
2022/10/13 11:07:38;;;;;;;134.30;62.13;;;;;;;;;;5074033;28;20040;-70
2022/10/13 11:10:19;;;;;;;133.30;63.45;;;;;;;;;;5092686;28;20051;-71
2022/10/13 11:12:51;;;;;;;118.78;59.45;;;;;;;;;;5090413;28;20476;-72
2022/10/13 11:15:23;;;;;;;124.43;61.10;;;;;;;;;;5085985;28;20053;-69
2022/10/13 11:17:49;;;;;;;138.32;65.15;;;;;;;;;;5085231;28;20515;-72
2022/10/13 11:20:23;;;;;;;139.45;65.45;;;;;;;;;;5082616;28;20043;-70
2022/10/13 11:22:58;;;;;;;128.63;62.72;;;;;;;;;;5085819;28;20446;-70
2022/10/13 11:25:40;;;;;;;121.20;61.28;;;;;;;;;;5087082;28;20131;-71
2022/10/13 11:28:26;;;;;;;127.05;62.20;;;;;;;;;;5088421;28;20050;-72
2022/10/13 11:30:57;;;;;;;115.87;59.30;;;;;;;;;;5085756;28;20079;-71
2022/10/13 11:33:33;;;;;;;128.07;62.45;;;;;;;;;;5084547;28;20036;-68
2022/10/13 11:36:18;;;;;;;117.70;59.03;;;;;;;;;;5085353;28;20127;-72
2022/10/13 11:38:48;;;;;;;127.07;62.13;;;;;;;;;;5080564;28;20051;-72
2022/10/13 11:41:26;;;;;;;115.70;59.08;;;;;;;;;;5079008;28;20259;-73
2022/10/13 11:44:06;;;;;;;128.52;60.50;;;;;;;;;;5076721;28;20150;-72
2022/10/13 11:46:51;;;;;;;135.30;64.25;;;;;;;;;;5082617;28;20036;-72
2022/10/13 11:49:17;;;;;;;105.60;56.17;;;;;;;;;;5087298;28;20106;-74
2022/10/13 11:51:50;;;;;;;146.43;65.50;;;;;;;;;;5078483;28;20101;-73
2022/10/13 11:54:16;;;;;;;103.85;54.72;;;;;;;;;;5077141;28;20067;-74
2022/10/13 11:56:51;;;;;;;117.75;59.42;;;;;;;;;;5089953;28;20044;-69
2022/10/13 11:59:30;;;;;;;117.30;58.25;;;;;;;;;;5087157;28;20483;-72
2022/10/13 12:01:58;;;;;;;107.57;57.05;;;;;;;;;;5075373;28;20518;-75
2022/10/13 12:04:25;;;;;;;107.40;54.95;;;;;;;;;;5095128;28;20087;-73
2022/10/13 12:06:56;;;;;;;102.93;53.92;;;;;;;;;;5091925;28;20036;-74
2022/10/13 12:09:23;;;;;;;109.03;57.13;;;;;;;;;;5093379;28;21833;-74
2022/10/13 12:11:55;;;;;;;100.05;51.42;;;;;;;;;;5094006;28;20456;-69
2022/10/13 12:14:25;;;;;;;102.97;54.58;;;;;;;;;;5091371;28;20484;-72
2022/10/13 12:16:52;;;;;;;108.18;56.08;;;;;;;;;;5094011;28;20052;-72
2022/10/13 12:19:19;;;;;;;81.93;50.08;;;;;;;;;;5086334;28;20626;-71
2022/10/13 12:21:49;;;;;;;84.18;48.75;;;;;;;;;;5088704;28;20075;-70
2022/10/13 12:24:15;;;;;;;98.90;52.17;;;;;;;;;;5084904;28;20476;-73
2022/10/13 12:26:41;;;;;;;93.22;51.30;;;;;;;;;;5088680;28;20043;-74
2022/10/13 12:29:12;;;;;;;107.70;54.50;;;;;;;;;;5093470;28;20056;-73
2022/10/13 12:31:40;;;;;;;95.55;51.85;;;;;;;;;;5093920;28;20070;-73
2022/10/13 12:34:26;;;;;;;87.60;49.38;;;;;;;;;;5091385;28;20075;-73
2022/10/13 12:37:12;;;;;;;93.05;51.78;;;;;;;;;;5091510;28;20093;-74
2022/10/13 12:39:38;;;;;;;117.30;55.03;;;;;;;;;;5085394;28;20048;-75
2022/10/13 12:42:07;;;;;;;80.10;49.75;;;;;;;;;;5093738;28;20055;-74
2022/10/13 12:44:33;;;;;;;96.43;53.05;;;;;;;;;;5096032;28;20044;-74
2022/10/13 12:46:59;;;;;;;;;;;;;;;;;;5095214;28;20032;-72
2022/10/13 12:49:27;;;;;;;93.05;50.40;;;;;;;;;;5088253;28;19927;-74
2022/10/13 12:52:16;;;;;;;92.97;51.53;;;;;;;;;;5076366;28;20375;-73
2022/10/13 12:54:50;;;;;;;89.68;48.75;;;;;;;;;;5078062;28;20423;-74
2022/10/13 12:57:21;;;;;;;78.75;47.60;;;;;;;;;;5092846;28;20044;-74
2022/10/13 12:59:47;;;;;;;80.68;47.33;;;;;;;;;;5093483;28;20055;-69
2022/10/13 13:02:13;;;;;;;;;;;;;;;;;;5075077;28;20044;-73
2022/10/13 13:04:41;;;;;;;84.10;45.40;;;;;;;;;;5094011;28;19946;-73
2022/10/13 13:07:28;;;;;;;88.28;47.33;;;;;;;;;;5060314;28;20059;-74
2022/10/13 13:10:13;;;;;;;87.35;49.38;;;;;;;;;;5079587;28;20426;-71
2022/10/13 13:12:39;;;;;;;84.65;45.35;;;;;;;;;;5092418;28;20044;-71
2022/10/13 13:15:30;;;;;;;85.22;47.95;;;;;;;;;;5092753;28;20471;-72
2022/10/13 13:18:16;;;;;;;73.78;44.88;;;;;;;;;;5091952;28;20055;-72
2022/10/13 13:20:42;;;;;;;83.53;46.60;;;;;;;;;;5094613;28;20052;-72
2022/10/13 13:23:08;;;;;;;74.43;44.72;;;;;;;;;;5094148;28;20043;-73
2022/10/13 13:25:34;;;;;;;78.07;44.38;;;;;;;;;;5094590;28;20048;-72
2022/10/13 13:28:03;;;;;;;79.15;45.25;;;;;;;;;;5075075;28;20051;-73
2022/10/13 13:30:29;;;;;;;85.05;49.15;;;;;;;;;;5094457;28;20123;-72
2022/10/13 13:32:55;;;;;;;85.65;48.05;;;;;;;;;;5090137;28;20487;-72
2022/10/13 13:35:21;;;;;;;90.93;48.40;;;;;;;;;;5084465;28;20044;-73
2022/10/13 13:37:48;;;;;;;90.32;49.78;;;;;;;;;;5089473;28;20059;-70
2022/10/13 13:40:24;;;;;;;76.72;46.38;;;;;;;;;;5087290;28;20055;-72
2022/10/13 13:42:51;;;;;;;69.60;44.42;;;;;;;;;;5090092;28;20054;-73
2022/10/13 13:45:17;;;;;;;;;;;;;;;;;;5076016;28;20043;-72
2022/10/13 13:47:43;;;;;;;77.82;45.13;;;;;;;;;;5091616;28;19927;-72
2022/10/13 13:50:09;;;;;;;;;;;;;;;;;;5092959;28;20396;-71
2022/10/13 13:52:35;;;;;;;82.80;46.25;;;;;;;;;;5094134;28;19926;-72
2022/10/13 13:55:01;;;;;;;72.43;43.28;;;;;;;;;;5093470;28;20052;-72
2022/10/13 13:57:27;;;;;;;72.13;43.35;;;;;;;;;;5092330;28;20040;-72
2022/10/13 13:59:53;;;;;;;67.88;43.63;;;;;;;;;;5092774;28;20115;-71
2022/10/13 14:02:20;;;;;;;74.30;44.83;;;;;;;;;;5074687;28;20052;-71
2022/10/13 14:04:46;;;;;;;66.68;44.20;;;;;;;;;;5094028;28;20083;-72
2022/10/13 14:07:13;;;;;;;73.10;44.25;;;;;;;;;;5088518;28;20425;-79
2022/10/13 14:09:39;;;;;;;;;;;;;;;;;;5072745;28;20127;-71
2022/10/13 14:12:05;;;;;;;67.75;42.33;;;;;;;;;;5073114;28;19999;-70
2022/10/13 14:14:32;;;;;;;71.15;43.95;;;;;;;;;;5041935;28;20482;-71
2022/10/13 14:17:02;;;;;;;92.90;50.17;;;;;;;;;;5023542;28;20057;-69
2022/10/13 14:19:28;;;;;;;83.03;46.22;;;;;;;;;;5025580;28;20516;-70
2022/10/13 14:21:54;;;;;;;81.95;46.38;;;;;;;;;;5020837;28;20037;-71
2022/10/13 14:24:20;;;;;;;66.03;42.25;;;;;;;;;;5026537;28;20041;-72
2022/10/13 14:26:46;;;;;;;73.07;43.38;;;;;;;;;;5017623;28;20524;-72
2022/10/13 14:29:13;;;;;;;77.25;46.92;;;;;;;;;;5032336;28;20115;-72